sensor_id;sensor_type;location;lat;lon;timestamp;pressure;altitude;pressure_sealevel;temperature;humidity
78206;BME280;67480;48.920;12.880;2023-08-12T00:00:16;97550.38;;;25.38;37.73
78206;BME280;67480;48.920;12.880;2023-08-12T00:02:42;97544.16;;;25.16;38.52
78206;BME280;67480;48.920;12.880;2023-08-12T00:05:08;97553.59;;;25.25;38.11
78206;BME280;67480;48.920;12.880;2023-08-12T00:07:36;97550.78;;;25.33;38.27
78206;BME280;67480;48.920;12.880;2023-08-12T00:10:02;97555.16;;;25.12;38.41
78206;BME280;67480;48.920;12.880;2023-08-12T00:12:32;97557.53;;;25.10;38.67
78206;BME280;67480;48.920;12.880;2023-08-12T00:14:58;97556.38;;;24.82;39.34
78206;BME280;67480;48.920;12.880;2023-08-12T00:17:24;97552.81;;;24.78;39.36
78206;BME280;67480;48.920;12.880;2023-08-12T00:19:49;97551.25;;;24.77;39.62
78206;BME280;67480;48.920;12.880;2023-08-12T00:22:14;97548.91;;;24.90;39.50
78206;BME280;67480;48.920;12.880;2023-08-12T00:24:40;97551.28;;;24.91;39.40
78206;BME280;67480;48.920;12.880;2023-08-12T00:27:06;97547.31;;;24.92;39.36
78206;BME280;67480;48.920;12.880;2023-08-12T00:29:34;97551.63;;;25.08;38.99
78206;BME280;67480;48.920;12.880;2023-08-12T00:32:00;97553.59;;;25.04;39.01
78206;BME280;67480;48.920;12.880;2023-08-12T00:34:25;97552.81;;;25.14;38.96
78206;BME280;67480;48.920;12.880;2023-08-12T00:36:51;97551.56;;;25.37;38.76
78206;BME280;67480;48.920;12.880;2023-08-12T00:39:16;97546.09;;;25.15;39.14
78206;BME280;67480;48.920;12.880;2023-08-12T00:41:41;97541.78;;;25.07;39.32
78206;BME280;67480;48.920;12.880;2023-08-12T00:44:06;97544.53;;;25.21;39.29
78206;BME280;67480;48.920;12.880;2023-08-12T00:46:33;97532.28;;;25.40;38.96
78206;BME280;67480;48.920;12.880;2023-08-12T00:48:59;97533.09;;;25.34;38.59
78206;BME280;67480;48.920;12.880;2023-08-12T00:51:25;97530.69;;;25.43;38.57
78206;BME280;67480;48.920;12.880;2023-08-12T00:53:50;97529.16;;;25.31;38.89
78206;BME280;67480;48.920;12.880;2023-08-12T00:56:17;97516.94;;;25.39;38.60
78206;BME280;67480;48.920;12.880;2023-08-12T00:58:42;97516.91;;;25.43;38.78
78206;BME280;67480;48.920;12.880;2023-08-12T01:01:08;97510.28;;;25.29;38.56
78206;BME280;67480;48.920;12.880;2023-08-12T01:03:34;97521.69;;;25.24;38.63
78206;BME280;67480;48.920;12.880;2023-08-12T01:06:00;97517.78;;;25.25;38.85
78206;BME280;67480;48.920;12.880;2023-08-12T01:08:29;97519.78;;;25.14;38.61
78206;BME280;67480;48.920;12.880;2023-08-12T01:11:03;97515.81;;;25.22;38.21
78206;BME280;67480;48.920;12.880;2023-08-12T01:13:39;97513.03;;;25.19;38.66
78206;BME280;67480;48.920;12.880;2023-08-12T01:16:09;97516.59;;;25.12;38.99
78206;BME280;67480;48.920;12.880;2023-08-12T01:18:39;97505.59;;;25.12;38.85
78206;BME280;67480;48.920;12.880;2023-08-12T01:21:07;97503.28;;;24.96;39.38
78206;BME280;67480;48.920;12.880;2023-08-12T01:23:37;97499.75;;;24.85;39.14
78206;BME280;67480;48.920;12.880;2023-08-12T01:26:04;97500.09;;;25.12;38.68
78206;BME280;67480;48.920;12.880;2023-08-12T01:28:29;97502.09;;;24.83;39.34
78206;BME280;67480;48.920;12.880;2023-08-12T01:31:41;97495.06;;;24.82;39.42
78206;BME280;67480;48.920;12.880;2023-08-12T01:34:12;97494.63;;;24.80;39.35
78206;BME280;67480;48.920;12.880;2023-08-12T01:36:39;97496.97;;;24.96;39.34
78206;BME280;67480;48.920;12.880;2023-08-12T01:39:09;97493.06;;;24.93;39.21
78206;BME280;67480;48.920;12.880;2023-08-12T01:41:35;97486.00;;;24.88;39.59
78206;BME280;67480;48.920;12.880;2023-08-12T01:44:02;97492.66;;;24.98;38.96
78206;BME280;67480;48.920;12.880;2023-08-12T01:46:28;97496.19;;;24.95;39.14
78206;BME280;67480;48.920;12.880;2023-08-12T01:48:53;97500.09;;;25.16;38.78
78206;BME280;67480;48.920;12.880;2023-08-12T01:51:19;97496.59;;;24.97;39.32
78206;BME280;67480;48.920;12.880;2023-08-12T01:53:44;97493.06;;;24.75;39.96
78206;BME280;67480;48.920;12.880;2023-08-12T01:56:10;97495.81;;;24.64;40.32
78206;BME280;67480;48.920;12.880;2023-08-12T01:58:35;97488.34;;;24.61;40.04
78206;BME280;67480;48.920;12.880;2023-08-12T02:01:00;97489.53;;;24.67;40.01
78206;BME280;67480;48.920;12.880;2023-08-12T02:03:25;97482.44;;;24.66;40.13
78206;BME280;67480;48.920;12.880;2023-08-12T02:05:51;97483.63;;;24.58;40.02
78206;BME280;67480;48.920;12.880;2023-08-12T02:08:16;97481.28;;;24.64;39.99
78206;BME280;67480;48.920;12.880;2023-08-12T02:10:42;97486.00;;;24.85;39.90
78206;BME280;67480;48.920;12.880;2023-08-12T02:13:07;97477.72;;;24.74;39.87
78206;BME280;67480;48.920;12.880;2023-08-12T02:15:32;97475.38;;;24.58;40.23
78206;BME280;67480;48.920;12.880;2023-08-12T02:17:58;97470.66;;;24.58;40.07
78206;BME280;67480;48.920;12.880;2023-08-12T02:20:24;97469.88;;;24.65;39.59
78206;BME280;67480;48.920;12.880;2023-08-12T02:22:49;97472.63;;;24.69;39.65
78206;BME280;67480;48.920;12.880;2023-08-12T02:25:15;97469.09;;;24.54;40.06
78206;BME280;67480;48.920;12.880;2023-08-12T02:27:40;97460.44;;;24.52;40.06
78206;BME280;67480;48.920;12.880;2023-08-12T02:30:06;97461.25;;;24.52;39.96
78206;BME280;67480;48.920;12.880;2023-08-12T02:32:32;97458.47;;;24.45;40.35
78206;BME280;67480;48.920;12.880;2023-08-12T02:34:57;97453.38;;;24.44;40.06
78206;BME280;67480;48.920;12.880;2023-08-12T02:37:23;97456.53;;;24.49;39.99
78206;BME280;67480;48.920;12.880;2023-08-12T02:39:48;97452.59;;;24.32;40.26
78206;BME280;67480;48.920;12.880;2023-08-12T02:42:13;97455.75;;;24.34;40.33
78206;BME280;67480;48.920;12.880;2023-08-12T02:44:39;97453.00;;;24.49;39.94
78206;BME280;67480;48.920;12.880;2023-08-12T02:47:04;97447.09;;;24.29;40.50
78206;BME280;67480;48.920;12.880;2023-08-12T02:49:29;97449.81;;;24.03;40.67
78206;BME280;67480;48.920;12.880;2023-08-12T02:51:54;97444.34;;;24.22;40.27
78206;BME280;67480;48.920;12.880;2023-08-12T02:54:20;97449.47;;;24.27;40.24
78206;BME280;67480;48.920;12.880;2023-08-12T02:56:45;97438.06;;;24.21;40.40
78206;BME280;67480;48.920;12.880;2023-08-12T02:59:11;97441.59;;;24.14;40.36
78206;BME280;67480;48.920;12.880;2023-08-12T03:01:36;97443.91;;;23.94;40.90
78206;BME280;67480;48.920;12.880;2023-08-12T03:04:01;97438.38;;;23.83;41.11
78206;BME280;67480;48.920;12.880;2023-08-12T03:06:29;97429.75;;;23.85;41.06
78206;BME280;67480;48.920;12.880;2023-08-12T03:08:54;97430.94;;;24.13;40.69
78206;BME280;67480;48.920;12.880;2023-08-12T03:11:20;97434.09;;;24.04;40.49
78206;BME280;67480;48.920;12.880;2023-08-12T03:13:45;97432.97;;;24.27;40.40
78206;BME280;67480;48.920;12.880;2023-08-12T03:16:14;97431.75;;;24.13;40.28
78206;BME280;67480;48.920;12.880;2023-08-12T03:18:40;97439.59;;;24.11;39.85
78206;BME280;67480;48.920;12.880;2023-08-12T03:21:09;97442.75;;;24.02;40.28
78206;BME280;67480;48.920;12.880;2023-08-12T03:23:35;97438.03;;;24.10;39.96
78206;BME280;67480;48.920;12.880;2023-08-12T03:26:01;97437.25;;;24.02;40.38
78206;BME280;67480;48.920;12.880;2023-08-12T03:28:27;97443.91;;;23.87;40.94
78206;BME280;67480;48.920;12.880;2023-08-12T03:30:53;97436.84;;;23.90;40.53
78206;BME280;67480;48.920;12.880;2023-08-12T03:33:19;97430.94;;;23.95;40.69
78206;BME280;67480;48.920;12.880;2023-08-12T03:35:45;97423.09;;;24.08;40.43
78206;BME280;67480;48.920;12.880;2023-08-12T03:38:11;97424.72;;;24.27;39.34
78206;BME280;67480;48.920;12.880;2023-08-12T03:40:40;97421.19;;;24.30;39.44
78206;BME280;67480;48.920;12.880;2023-08-12T03:43:05;97425.88;;;24.22;39.74
78206;BME280;67480;48.920;12.880;2023-08-12T03:45:30;97424.28;;;24.03;40.19
78206;BME280;67480;48.920;12.880;2023-08-12T03:47:56;97423.09;;;24.00;40.28
78206;BME280;67480;48.920;12.880;2023-08-12T03:50:21;97419.22;;;24.23;39.70
78206;BME280;67480;48.920;12.880;2023-08-12T03:52:46;97419.56;;;24.03;40.19
78206;BME280;67480;48.920;12.880;2023-08-12T03:55:13;97418.00;;;24.10;39.71
78206;BME280;67480;48.920;12.880;2023-08-12T03:57:39;97418.81;;;24.07;39.89
78206;BME280;67480;48.920;12.880;2023-08-12T04:00:05;97418.38;;;24.05;39.89
78206;BME280;67480;48.920;12.880;2023-08-12T04:02:32;97420.75;;;24.06;39.95
78206;BME280;67480;48.920;12.880;2023-08-12T04:04:57;97417.59;;;24.04;39.61
78206;BME280;67480;48.920;12.880;2023-08-12T04:07:23;97421.13;;;24.05;39.74
78206;BME280;67480;48.920;12.880;2023-08-12T04:09:49;97422.31;;;24.07;39.88
78206;BME280;67480;48.920;12.880;2023-08-12T04:12:14;97421.91;;;24.01;40.71
78206;BME280;67480;48.920;12.880;2023-08-12T04:14:40;97423.94;;;24.30;40.01
78206;BME280;67480;48.920;12.880;2023-08-12T04:17:06;97423.50;;;24.13;39.80
78206;BME280;67480;48.920;12.880;2023-08-12T04:19:31;97416.84;;;24.14;39.70
78206;BME280;67480;48.920;12.880;2023-08-12T04:21:56;97416.06;;;24.17;39.55
78206;BME280;67480;48.920;12.880;2023-08-12T04:24:22;97417.25;;;24.38;38.99
78206;BME280;67480;48.920;12.880;2023-08-12T04:26:47;97413.66;;;24.52;38.92
78206;BME280;67480;48.920;12.880;2023-08-12T04:29:12;97422.69;;;24.70;38.73
78206;BME280;67480;48.920;12.880;2023-08-12T04:31:38;97418.41;;;24.51;38.87
78206;BME280;67480;48.920;12.880;2023-08-12T04:34:03;97416.06;;;24.35;39.19
78206;BME280;67480;48.920;12.880;2023-08-12T04:36:29;97418.00;;;24.49;39.05
78206;BME280;67480;48.920;12.880;2023-08-12T04:38:55;97411.72;;;24.52;39.03
78206;BME280;67480;48.920;12.880;2023-08-12T04:41:20;97415.22;;;24.67;38.60
78206;BME280;67480;48.920;12.880;2023-08-12T04:43:45;97414.44;;;24.60;38.38
78206;BME280;67480;48.920;12.880;2023-08-12T04:46:10;97428.63;;;24.36;38.93
78206;BME280;67480;48.920;12.880;2023-08-12T04:48:36;97427.41;;;24.52;38.86
78206;BME280;67480;48.920;12.880;2023-08-12T04:51:01;97421.13;;;24.58;38.86
78206;BME280;67480;48.920;12.880;2023-08-12T04:53:28;97414.44;;;24.60;38.73
78206;BME280;67480;48.920;12.880;2023-08-12T04:55:55;97419.97;;;24.56;38.94
78206;BME280;67480;48.920;12.880;2023-08-12T04:58:20;97424.22;;;24.89;38.16
78206;BME280;67480;48.920;12.880;2023-08-12T05:00:46;97425.78;;;25.01;38.12
78206;BME280;67480;48.920;12.880;2023-08-12T05:03:11;97419.91;;;24.92;38.42
78206;BME280;67480;48.920;12.880;2023-08-12T05:05:36;97421.09;;;24.87;39.42
78206;BME280;67480;48.920;12.880;2023-08-12T05:08:02;97425.44;;;24.85;39.19
78206;BME280;67480;48.920;12.880;2023-08-12T05:10:27;97430.97;;;24.56;39.63
78206;BME280;67480;48.920;12.880;2023-08-12T05:12:52;97431.34;;;24.62;39.63
78206;BME280;67480;48.920;12.880;2023-08-12T05:15:19;97426.63;;;24.58;39.98
78206;BME280;67480;48.920;12.880;2023-08-12T05:17:45;97419.53;;;24.68;40.20
78206;BME280;67480;48.920;12.880;2023-08-12T05:20:10;97412.47;;;24.67;39.74
78206;BME280;67480;48.920;12.880;2023-08-12T05:22:36;97412.47;;;24.71;39.73
78206;BME280;67480;48.920;12.880;2023-08-12T05:25:01;97420.72;;;24.71;39.36
78206;BME280;67480;48.920;12.880;2023-08-12T05:27:26;97421.50;;;24.79;39.88
78206;BME280;67480;48.920;12.880;2023-08-12T05:29:52;97423.84;;;24.73;40.80
78206;BME280;67480;48.920;12.880;2023-08-12T05:32:17;97423.84;;;24.87;40.10
78206;BME280;67480;48.920;12.880;2023-08-12T05:34:43;97431.75;;;24.82;40.41
78206;BME280;67480;48.920;12.880;2023-08-12T05:37:08;97420.69;;;24.78;40.76
78206;BME280;67480;48.920;12.880;2023-08-12T05:39:34;97433.28;;;24.75;40.90
78206;BME280;67480;48.920;12.880;2023-08-12T05:41:59;97425.44;;;24.70;40.85
78206;BME280;67480;48.920;12.880;2023-08-12T05:44:24;97427.78;;;24.75;40.84
78206;BME280;67480;48.920;12.880;2023-08-12T05:46:50;97433.28;;;24.83;40.86
78206;BME280;67480;48.920;12.880;2023-08-12T05:49:15;97438.41;;;24.73;41.41
78206;BME280;67480;48.920;12.880;2023-08-12T05:51:40;97443.78;;;25.27;40.40
78206;BME280;67480;48.920;12.880;2023-08-12T05:54:06;97445.28;;;25.39;39.85
78206;BME280;67480;48.920;12.880;2023-08-12T05:56:32;97451.19;;;25.45;40.24
78206;BME280;67480;48.920;12.880;2023-08-12T05:58:57;97447.28;;;25.32;40.70
78206;BME280;67480;48.920;12.880;2023-08-12T06:01:22;97452.00;;;25.35;40.70
78206;BME280;67480;48.920;12.880;2023-08-12T06:03:48;97450.84;;;25.32;40.53
78206;BME280;67480;48.920;12.880;2023-08-12T06:06:13;97451.75;;;24.89;41.25
78206;BME280;67480;48.920;12.880;2023-08-12T06:08:38;97452.88;;;25.14;41.15
78206;BME280;67480;48.920;12.880;2023-08-12T06:11:04;97454.06;;;25.13;40.79
78206;BME280;67480;48.920;12.880;2023-08-12T06:13:29;97453.09;;;25.59;40.67
78206;BME280;67480;48.920;12.880;2023-08-12T06:15:54;97449.53;;;25.62;40.89
78206;BME280;67480;48.920;12.880;2023-08-12T06:18:20;97450.81;;;25.39;41.43
78206;BME280;67480;48.920;12.880;2023-08-12T06:20:45;97452.03;;;25.27;41.38
78206;BME280;67480;48.920;12.880;2023-08-12T06:23:10;97446.88;;;25.44;41.12
78206;BME280;67480;48.920;12.880;2023-08-12T06:25:36;97442.91;;;25.52;40.58
78206;BME280;67480;48.920;12.880;2023-08-12T06:28:02;97433.34;;;25.67;41.00
78206;BME280;67480;48.920;12.880;2023-08-12T06:30:29;97438.03;;;25.74;40.97
78206;BME280;67480;48.920;12.880;2023-08-12T06:32:55;97433.72;;;26.29;39.97
78206;BME280;67480;48.920;12.880;2023-08-12T06:35:20;97429.13;;;26.15;40.05
78206;BME280;67480;48.920;12.880;2023-08-12T06:37:45;97418.09;;;26.15;40.47
78206;BME280;67480;48.920;12.880;2023-08-12T06:40:11;97423.06;;;26.31;40.08
78206;BME280;67480;48.920;12.880;2023-08-12T06:42:36;97422.94;;;26.46;40.64
78206;BME280;67480;48.920;12.880;2023-08-12T06:45:01;97413.28;;;26.27;41.39
78206;BME280;67480;48.920;12.880;2023-08-12T06:47:29;97413.13;;;26.41;41.42
78206;BME280;67480;48.920;12.880;2023-08-12T06:49:54;97402.63;;;26.67;40.66
78206;BME280;67480;48.920;12.880;2023-08-12T06:52:20;97407.56;;;26.86;40.14
78206;BME280;67480;48.920;12.880;2023-08-12T06:54:45;97406.38;;;27.53;39.42
78206;BME280;67480;48.920;12.880;2023-08-12T06:57:10;97402.69;;;28.61;37.56
78206;BME280;67480;48.920;12.880;2023-08-12T06:59:37;97406.34;;;31.83;32.93
78206;BME280;67480;48.920;12.880;2023-08-12T07:02:02;97421.75;;;37.21;25.67
78206;BME280;67480;48.920;12.880;2023-08-12T07:04:28;97435.16;;;41.48;20.79
78206;BME280;67480;48.920;12.880;2023-08-12T07:06:53;97429.97;;;44.36;17.83
78206;BME280;67480;48.920;12.880;2023-08-12T07:09:19;97440.78;;;45.84;16.73
78206;BME280;67480;48.920;12.880;2023-08-12T07:11:44;97444.53;;;46.05;16.04
78206;BME280;67480;48.920;12.880;2023-08-12T07:14:09;97434.38;;;44.80;17.10
78206;BME280;67480;48.920;12.880;2023-08-12T07:16:35;97422.81;;;40.02;20.90
78206;BME280;67480;48.920;12.880;2023-08-12T07:19:00;97414.72;;;36.86;24.40
78206;BME280;67480;48.920;12.880;2023-08-12T07:21:26;97412.28;;;34.66;27.25
78206;BME280;67480;48.920;12.880;2023-08-12T07:23:51;97413.44;;;33.15;29.30
78206;BME280;67480;48.920;12.880;2023-08-12T07:26:16;97403.09;;;32.24;30.54
78206;BME280;67480;48.920;12.880;2023-08-12T07:28:42;97404.66;;;31.60;31.71
78206;BME280;67480;48.920;12.880;2023-08-12T07:31:07;97407.34;;;31.90;31.77
78206;BME280;67480;48.920;12.880;2023-08-12T07:33:33;97414.41;;;33.43;30.81
78206;BME280;67480;48.920;12.880;2023-08-12T07:35:59;97411.69;;;34.62;28.96
78206;BME280;67480;48.920;12.880;2023-08-12T07:38:24;97420.84;;;36.61;25.46
78206;BME280;67480;48.920;12.880;2023-08-12T07:40:50;97433.34;;;39.12;22.89
78206;BME280;67480;48.920;12.880;2023-08-12T07:43:15;97436.63;;;41.09;20.81
78206;BME280;67480;48.920;12.880;2023-08-12T07:45:41;97450.50;;;42.96;18.41
78206;BME280;67480;48.920;12.880;2023-08-12T07:48:06;97450.25;;;43.35;18.38
78206;BME280;67480;48.920;12.880;2023-08-12T07:50:31;97438.03;;;43.82;17.79
78206;BME280;67480;48.920;12.880;2023-08-12T07:52:57;97436.72;;;45.14;16.55
78206;BME280;67480;48.920;12.880;2023-08-12T07:55:22;97440.00;;;44.42;16.55
78206;BME280;67480;48.920;12.880;2023-08-12T07:57:47;97433.63;;;44.55;16.38
78206;BME280;67480;48.920;12.880;2023-08-12T08:00:13;97447.59;;;46.07;15.35
78206;BME280;67480;48.920;12.880;2023-08-12T08:02:38;97451.69;;;46.86;15.03
78206;BME280;67480;48.920;12.880;2023-08-12T08:05:04;97449.56;;;48.63;13.71
78206;BME280;67480;48.920;12.880;2023-08-12T08:07:30;97444.72;;;47.64;14.47
78206;BME280;67480;48.920;12.880;2023-08-12T08:09:56;97441.66;;;47.83;14.05
78206;BME280;67480;48.920;12.880;2023-08-12T08:12:21;97440.88;;;47.62;13.45
78206;BME280;67480;48.920;12.880;2023-08-12T08:14:46;97430.72;;;47.32;14.41
78206;BME280;67480;48.920;12.880;2023-08-12T08:17:12;97431.94;;;47.79;13.96
78206;BME280;67480;48.920;12.880;2023-08-12T08:19:37;97434.91;;;49.34;13.20
78206;BME280;67480;48.920;12.880;2023-08-12T08:22:02;97438.94;;;50.08;12.55
78206;BME280;67480;48.920;12.880;2023-08-12T08:24:28;97434.25;;;50.52;12.35
78206;BME280;67480;48.920;12.880;2023-08-12T08:26:53;97434.75;;;50.02;13.04
78206;BME280;67480;48.920;12.880;2023-08-12T08:29:19;97440.53;;;50.58;12.52
78206;BME280;67480;48.920;12.880;2023-08-12T08:31:44;97433.63;;;49.43;12.93
78206;BME280;67480;48.920;12.880;2023-08-12T08:34:09;97434.84;;;48.96;13.52
78206;BME280;67480;48.920;12.880;2023-08-12T08:36:35;97440.81;;;49.13;12.63
78206;BME280;67480;48.920;12.880;2023-08-12T08:39:00;97434.88;;;50.27;12.54
78206;BME280;67480;48.920;12.880;2023-08-12T08:41:27;97443.34;;;49.94;12.87
78206;BME280;67480;48.920;12.880;2023-08-12T08:43:55;97435.09;;;49.21;13.13
78206;BME280;67480;48.920;12.880;2023-08-12T08:46:22;97441.59;;;49.14;12.73
78206;BME280;67480;48.920;12.880;2023-08-12T08:48:48;97439.31;;;50.13;12.01
78206;BME280;67480;48.920;12.880;2023-08-12T08:51:14;97441.13;;;50.97;11.83
78206;BME280;67480;48.920;12.880;2023-08-12T08:53:40;97434.50;;;51.20;11.62
78206;BME280;67480;48.920;12.880;2023-08-12T08:56:07;97453.63;;;51.42;11.53
78206;BME280;67480;48.920;12.880;2023-08-12T08:58:32;97449.66;;;51.38;11.57
78206;BME280;67480;48.920;12.880;2023-08-12T09:00:58;97445.06;;;50.69;11.86
78206;BME280;67480;48.920;12.880;2023-08-12T09:03:25;97445.38;;;50.24;12.16
78206;BME280;67480;48.920;12.880;2023-08-12T09:05:51;97445.34;;;48.20;13.31
78206;BME280;67480;48.920;12.880;2023-08-12T09:08:17;97432.19;;;48.46;13.07
78206;BME280;67480;48.920;12.880;2023-08-12T09:10:44;97441.81;;;47.56;14.15
78206;BME280;67480;48.920;12.880;2023-08-12T09:13:11;97432.38;;;46.58;14.38
78206;BME280;67480;48.920;12.880;2023-08-12T09:15:36;97432.88;;;47.60;14.15
78206;BME280;67480;48.920;12.880;2023-08-12T09:18:05;97426.00;;;47.76;13.99
78206;BME280;67480;48.920;12.880;2023-08-12T09:20:30;97432.78;;;49.04;13.14
78206;BME280;67480;48.920;12.880;2023-08-12T09:22:57;97429.94;;;50.76;12.24
78206;BME280;67480;48.920;12.880;2023-08-12T09:25:23;97427.50;;;49.93;12.43
78206;BME280;67480;48.920;12.880;2023-08-12T09:27:48;97426.91;;;50.81;11.92
78206;BME280;67480;48.920;12.880;2023-08-12T09:30:14;97420.63;;;51.33;12.35
78206;BME280;67480;48.920;12.880;2023-08-12T09:32:39;97418.88;;;51.63;11.29
78206;BME280;67480;48.920;12.880;2023-08-12T09:35:05;97411.56;;;50.87;11.43
78206;BME280;67480;48.920;12.880;2023-08-12T09:37:31;97412.78;;;50.20;11.99
78206;BME280;67480;48.920;12.880;2023-08-12T09:39:57;97420.81;;;52.21;11.21
78206;BME280;67480;48.920;12.880;2023-08-12T09:42:23;97415.72;;;53.19;11.19
78206;BME280;67480;48.920;12.880;2023-08-12T09:44:49;97413.13;;;52.06;11.54
78206;BME280;67480;48.920;12.880;2023-08-12T09:47:14;97406.09;;;52.52;11.88
78206;BME280;67480;48.920;12.880;2023-08-12T09:49:40;97396.78;;;50.01;12.93
78206;BME280;67480;48.920;12.880;2023-08-12T09:52:06;97396.34;;;48.37;14.17
78206;BME280;67480;48.920;12.880;2023-08-12T09:54:32;97393.25;;;48.27;14.21
78206;BME280;67480;48.920;12.880;2023-08-12T09:56:59;97391.16;;;47.91;13.44
78206;BME280;67480;48.920;12.880;2023-08-12T09:59:27;97388.47;;;48.66;13.40
78206;BME280;67480;48.920;12.880;2023-08-12T10:01:55;97390.69;;;48.45;13.46
78206;BME280;67480;48.920;12.880;2023-08-12T10:04:28;97395.09;;;46.83;15.19
78206;BME280;67480;48.920;12.880;2023-08-12T10:06:55;97389.81;;;47.43;14.54
78206;BME280;67480;48.920;12.880;2023-08-12T10:09:20;97384.75;;;46.93;15.04
78206;BME280;67480;48.920;12.880;2023-08-12T10:11:46;97392.66;;;47.64;14.23
78206;BME280;67480;48.920;12.880;2023-08-12T10:14:12;97393.41;;;47.22;14.54
78206;BME280;67480;48.920;12.880;2023-08-12T10:16:38;97392.69;;;48.29;13.63
78206;BME280;67480;48.920;12.880;2023-08-12T10:19:05;97392.22;;;45.68;16.23
78206;BME280;67480;48.920;12.880;2023-08-12T10:21:31;97384.56;;;43.67;17.05
78206;BME280;67480;48.920;12.880;2023-08-12T10:23:58;97382.56;;;44.74;16.77
78206;BME280;67480;48.920;12.880;2023-08-12T10:26:25;97377.38;;;44.78;15.46
78206;BME280;67480;48.920;12.880;2023-08-12T10:28:50;97374.91;;;44.69;15.39
78206;BME280;67480;48.920;12.880;2023-08-12T10:31:16;97384.03;;;44.81;15.60
78206;BME280;67480;48.920;12.880;2023-08-12T10:33:42;97369.53;;;43.78;17.07
78206;BME280;67480;48.920;12.880;2023-08-12T10:36:08;97372.63;;;45.65;15.79
78206;BME280;67480;48.920;12.880;2023-08-12T10:38:34;97371.63;;;45.16;15.75
78206;BME280;67480;48.920;12.880;2023-08-12T10:41:24;97364.69;;;43.73;16.58
78206;BME280;67480;48.920;12.880;2023-08-12T10:46:29;97382.00;;;47.01;13.98
78206;BME280;67480;48.920;12.880;2023-08-12T10:49:02;97380.88;;;47.96;13.46
78206;BME280;67480;48.920;12.880;2023-08-12T10:51:53;97380.66;;;48.67;12.74
78206;BME280;67480;48.920;12.880;2023-08-12T10:54:24;97381.53;;;47.73;13.06
78206;BME280;67480;48.920;12.880;2023-08-12T11:02:27;97374.38;;;46.35;14.82
78206;BME280;67480;48.920;12.880;2023-08-12T11:05:13;97353.75;;;45.35;15.07
78206;BME280;67480;48.920;12.880;2023-08-12T11:07:41;97354.78;;;44.10;15.28
78206;BME280;67480;48.920;12.880;2023-08-12T11:12:36;97355.13;;;45.87;15.51
78206;BME280;67480;48.920;12.880;2023-08-12T11:15:03;97344.22;;;44.48;15.09
78206;BME280;67480;48.920;12.880;2023-08-12T11:17:42;97349.94;;;45.00;14.61
78206;BME280;67480;48.920;12.880;2023-08-12T11:20:10;97341.81;;;45.55;14.97
78206;BME280;67480;48.920;12.880;2023-08-12T11:22:37;97338.63;;;43.19;15.94
78206;BME280;67480;48.920;12.880;2023-08-12T11:25:05;97331.66;;;41.73;17.61
78206;BME280;67480;48.920;12.880;2023-08-12T11:27:51;97336.72;;;43.33;16.20
78206;BME280;67480;48.920;12.880;2023-08-12T11:30:18;97339.53;;;45.21;15.83
78206;BME280;67480;48.920;12.880;2023-08-12T11:32:49;97336.13;;;45.55;14.64
78206;BME280;67480;48.920;12.880;2023-08-12T11:35:16;97333.94;;;44.83;14.60
78206;BME280;67480;48.920;12.880;2023-08-12T11:37:44;97330.25;;;44.50;15.27
78206;BME280;67480;48.920;12.880;2023-08-12T11:40:11;97327.03;;;44.41;15.23
78206;BME280;67480;48.920;12.880;2023-08-12T11:42:41;97328.28;;;43.28;15.90
78206;BME280;67480;48.920;12.880;2023-08-12T11:45:07;97319.84;;;41.57;17.00
78206;BME280;67480;48.920;12.880;2023-08-12T11:47:34;97310.41;;;41.38;17.28
78206;BME280;67480;48.920;12.880;2023-08-12T11:50:02;97309.06;;;40.65;18.08
78206;BME280;67480;48.920;12.880;2023-08-12T11:52:29;97303.59;;;40.33;18.43
78206;BME280;67480;48.920;12.880;2023-08-12T11:54:54;97296.97;;;39.44;19.77
78206;BME280;67480;48.920;12.880;2023-08-12T11:57:22;97295.53;;;39.60;19.84
78206;BME280;67480;48.920;12.880;2023-08-12T11:59:47;97302.22;;;39.63;20.05
78206;BME280;67480;48.920;12.880;2023-08-12T12:02:13;97297.50;;;39.86;19.07
78206;BME280;67480;48.920;12.880;2023-08-12T12:04:41;97303.28;;;40.20;18.38
78206;BME280;67480;48.920;12.880;2023-08-12T12:07:37;97307.84;;;39.25;19.35
78206;BME280;67480;48.920;12.880;2023-08-12T12:10:04;97305.06;;;38.99;19.32
78206;BME280;67480;48.920;12.880;2023-08-12T12:12:33;97305.22;;;37.76;20.19
78206;BME280;67480;48.920;12.880;2023-08-12T12:14:58;97301.78;;;38.48;20.38
78206;BME280;67480;48.920;12.880;2023-08-12T12:17:24;97301.28;;;40.32;18.51
78206;BME280;67480;48.920;12.880;2023-08-12T12:20:00;97310.38;;;41.32;17.77
78206;BME280;67480;48.920;12.880;2023-08-12T12:22:27;97305.00;;;40.89;17.39
78206;BME280;67480;48.920;12.880;2023-08-12T12:24:53;97290.09;;;40.88;18.30
78206;BME280;67480;48.920;12.880;2023-08-12T12:27:18;97301.75;;;40.25;17.67
78206;BME280;67480;48.920;12.880;2023-08-12T12:29:44;97289.19;;;40.14;17.99
78206;BME280;67480;48.920;12.880;2023-08-12T12:32:10;97288.78;;;39.41;19.16
78206;BME280;67480;48.920;12.880;2023-08-12T12:34:36;97284.63;;;38.46;18.67
78206;BME280;67480;48.920;12.880;2023-08-12T12:37:01;97277.41;;;38.66;18.14
78206;BME280;67480;48.920;12.880;2023-08-12T12:39:26;97278.84;;;40.00;17.93
78206;BME280;67480;48.920;12.880;2023-08-12T12:41:52;97280.13;;;40.99;17.13
78206;BME280;67480;48.920;12.880;2023-08-12T12:44:17;97278.44;;;42.77;16.95
78206;BME280;67480;48.920;12.880;2023-08-12T12:46:43;97284.94;;;45.42;14.87
78206;BME280;67480;48.920;12.880;2023-08-12T12:49:08;97289.94;;;46.16;14.43
78206;BME280;67480;48.920;12.880;2023-08-12T12:51:33;97292.09;;;48.00;13.44
78206;BME280;67480;48.920;12.880;2023-08-12T12:53:59;97290.88;;;48.24;13.53
78206;BME280;67480;48.920;12.880;2023-08-12T12:56:24;97289.91;;;47.48;13.67